Time;durP1;ratioP1;P1;durP2;ratioP2;P2;SDS_P1;SDS_P2;PMS_P1;PMS_P2;Temp;Humidity;BMP_temperature;BMP_pressure;BME280_temperature;BME280_humidity;BME280_pressure;Samples;Min_cycle;Max_cycle;Signal;HPM_P1;HPM_P2
2022/06/04 00:00:13;;;;;;;11.13;5.00;;;;;;;;;;5134835;27;20526;-69
2022/06/04 00:02:42;;;;;;;5.17;4.10;;;;;;;;;;5135417;27;20502;-69
2022/06/04 00:05:11;;;;;;;5.83;4.30;;;;;;;;;;5135044;27;20528;-69
2022/06/04 00:07:38;;;;;;;5.33;4.50;;;;;;;;;;5134761;27;20471;-69
2022/06/04 00:15:38;;;;;;;5.33;4.93;;;;;;;;;;5134699;27;20453;-68
2022/06/04 00:18:07;;;;;;;4.47;4.03;;;;;;;;;;5134733;27;20438;-68
2022/06/04 00:20:34;;;;;;;6.10;5.17;;;;;;;;;;5134837;27;20433;-69
2022/06/04 00:23:02;;;;;;;5.13;4.63;;;;;;;;;;5135039;27;20546;-69
2022/06/04 00:25:30;;;;;;;4.93;4.53;;;;;;;;;;5134804;27;20529;-69
2022/06/04 00:28:00;;;;;;;6.57;4.63;;;;;;;;;;5134812;27;20435;-69
2022/06/04 00:30:27;;;;;;;4.63;4.23;;;;;;;;;;5134654;27;20839;-69
2022/06/04 00:32:55;;;;;;;7.20;4.63;;;;;;;;;;5134736;27;20470;-69
2022/06/04 00:35:24;;;;;;;6.07;5.47;;;;;;;;;;5134520;27;20477;-69
2022/06/04 00:37:51;;;;;;;5.17;4.10;;;;;;;;;;5134804;27;20517;-69
2022/06/04 00:40:24;;;;;;;4.43;3.87;;;;;;;;;;5134184;27;20526;-68
2022/06/04 00:42:51;;;;;;;7.87;4.10;;;;;;;;;;5135053;27;20422;-69
2022/06/04 00:45:37;;;;;;;4.57;4.17;;;;;;;;;;5134124;27;20447;-68
2022/06/04 00:48:06;;;;;;;5.00;4.60;;;;;;;;;;5133939;27;20472;-69
2022/06/04 00:50:36;;;;;;;5.70;4.60;;;;;;;;;;5134108;27;20434;-69
2022/06/04 00:53:04;;;;;;;5.57;4.33;;;;;;;;;;5134187;28;20470;-70
2022/06/04 00:55:42;;;;;;;4.93;4.50;;;;;;;;;;5134302;28;20483;-69
2022/06/04 00:58:16;;;;;;;7.73;4.27;;;;;;;;;;5134481;28;20521;-70
2022/06/04 01:00:47;;;;;;;5.80;5.07;;;;;;;;;;5134507;28;20839;-71
2022/06/04 01:03:20;;;;;;;8.83;5.33;;;;;;;;;;5134097;28;20418;-69
2022/06/04 01:05:58;;;;;;;5.43;4.93;;;;;;;;;;5137261;27;20919;-69
2022/06/04 01:08:32;;;;;;;5.03;4.53;;;;;;;;;;5138381;27;20486;-70
2022/06/04 01:11:03;;;;;;;5.53;4.70;;;;;;;;;;5138130;27;20430;-70
2022/06/04 01:13:38;;;;;;;7.80;4.57;;;;;;;;;;5138537;27;20426;-69
2022/06/04 01:16:12;;;;;;;6.90;4.40;;;;;;;;;;5138742;27;20873;-69
2022/06/04 01:18:42;;;;;;;4.97;4.57;;;;;;;;;;5138757;27;20498;-69
2022/06/04 01:21:16;;;;;;;7.40;5.30;;;;;;;;;;5137995;27;20433;-69
2022/06/04 01:24:06;;;;;;;6.53;5.50;;;;;;;;;;5138386;27;20423;-69
2022/06/04 01:26:51;;;;;;;5.70;4.73;;;;;;;;;;5138260;27;20454;-69
2022/06/04 01:29:20;;;;;;;6.40;5.47;;;;;;;;;;5138314;27;20424;-69
2022/06/04 01:31:49;;;;;;;6.90;5.37;;;;;;;;;;5137756;27;20502;-69
2022/06/04 01:34:19;;;;;;;5.70;5.10;;;;;;;;;;5137726;27;20473;-69
2022/06/04 01:36:49;;;;;;;6.20;5.53;;;;;;;;;;5138410;27;20787;-69
2022/06/04 01:39:19;;;;;;;6.80;5.30;;;;;;;;;;5137668;27;20434;-69
2022/06/04 01:41:48;;;;;;;5.40;4.83;;;;;;;;;;5137660;27;20505;-70
2022/06/04 01:44:20;;;;;;;10.70;5.67;;;;;;;;;;5137907;27;20442;-69
2022/06/04 01:46:51;;;;;;;6.37;5.77;;;;;;;;;;5138471;27;20422;-70
2022/06/04 01:49:22;;;;;;;7.07;5.60;;;;;;;;;;5137425;27;20478;-69
2022/06/04 01:51:50;;;;;;;6.03;4.90;;;;;;;;;;5137761;27;20516;-69
2022/06/04 01:54:21;;;;;;;5.70;5.20;;;;;;;;;;5138047;27;20489;-70
2022/06/04 01:56:53;;;;;;;6.90;5.50;;;;;;;;;;5137901;27;20467;-68
2022/06/04 01:59:24;;;;;;;6.37;5.73;;;;;;;;;;5137926;27;20849;-69
2022/06/04 02:01:53;;;;;;;6.60;5.57;;;;;;;;;;5137210;27;20434;-70
2022/06/04 02:04:23;;;;;;;9.20;5.40;;;;;;;;;;5137545;27;20441;-70
2022/06/04 02:09:34;;;;;;;6.97;5.03;;;;;;;;;;5136309;27;20785;-70
2022/06/04 02:12:03;;;;;;;5.70;5.10;;;;;;;;;;5136971;27;20430;-68
2022/06/04 02:14:32;;;;;;;5.87;5.40;;;;;;;;;;5137238;27;20473;-70
2022/06/04 02:17:03;;;;;;;6.83;5.47;;;;;;;;;;5136424;27;20540;-68
2022/06/04 02:19:31;;;;;;;5.93;5.33;;;;;;;;;;5136981;27;20470;-69
2022/06/04 02:21:58;;;;;;;7.63;6.27;;;;;;;;;;5137374;27;20465;-68
2022/06/04 02:24:25;;;;;;;12.07;5.37;;;;;;;;;;5137582;27;20465;-68
2022/06/04 02:26:53;;;;;;;6.13;5.60;;;;;;;;;;5137246;27;20530;-68
2022/06/04 02:29:20;;;;;;;7.93;6.17;;;;;;;;;;5137034;27;20442;-69
2022/06/04 02:31:51;;;;;;;5.77;5.37;;;;;;;;;;5136573;27;20450;-68
2022/06/04 02:34:21;;;;;;;6.50;5.90;;;;;;;;;;5137053;27;20523;-68
2022/06/04 02:36:55;;;;;;;6.90;5.80;;;;;;;;;;5137198;27;20871;-68
2022/06/04 02:39:25;;;;;;;12.40;6.10;;;;;;;;;;5136639;27;20501;-68
2022/06/04 02:41:54;;;;;;;7.43;6.00;;;;;;;;;;5136448;27;20427;-67
2022/06/04 02:44:24;;;;;;;9.50;6.20;;;;;;;;;;5136726;27;20445;-68
2022/06/04 02:46:58;;;;;;;7.80;6.03;;;;;;;;;;5136389;27;20922;-69
2022/06/04 02:49:27;;;;;;;6.37;5.87;;;;;;;;;;5136611;27;20568;-68
2022/06/04 02:51:55;;;;;;;9.27;6.77;;;;;;;;;;5136309;27;20520;-68
2022/06/04 02:54:24;;;;;;;6.77;6.17;;;;;;;;;;5136010;27;20927;-69
2022/06/04 02:56:52;;;;;;;7.87;6.07;;;;;;;;;;5136152;27;20448;-69
2022/06/04 02:59:20;;;;;;;7.00;6.40;;;;;;;;;;5136051;27;20984;-69
2022/06/04 03:01:49;;;;;;;7.73;6.97;;;;;;;;;;5136116;27;20521;-69
2022/06/04 03:04:18;;;;;;;9.60;6.37;;;;;;;;;;5136287;27;20434;-69
2022/06/04 03:06:45;;;;;;;7.17;6.20;;;;;;;;;;5136288;27;20445;-68
2022/06/04 03:09:13;;;;;;;6.50;5.90;;;;;;;;;;5136307;27;20857;-69
2022/06/04 03:11:43;;;;;;;6.77;6.07;;;;;;;;;;5135967;27;21049;-69
2022/06/04 03:14:10;;;;;;;7.23;6.50;;;;;;;;;;5135748;27;20441;-69
2022/06/04 03:16:38;;;;;;;7.57;6.80;;;;;;;;;;5135738;27;21006;-69
2022/06/04 03:19:07;;;;;;;8.27;6.40;;;;;;;;;;5136090;27;20441;-69
2022/06/04 03:21:36;;;;;;;8.50;6.70;;;;;;;;;;5136006;27;20548;-69
2022/06/04 03:24:03;;;;;;;7.03;6.30;;;;;;;;;;5135920;27;20867;-69
2022/06/04 03:26:31;;;;;;;7.27;6.13;;;;;;;;;;5135875;27;20532;-68
2022/06/04 03:28:58;;;;;;;12.23;5.93;;;;;;;;;;5134664;27;20536;-69
2022/06/04 03:31:27;;;;;;;7.93;7.13;;;;;;;;;;5135838;27;20440;-69
2022/06/04 03:33:54;;;;;;;9.80;6.60;;;;;;;;;;5135883;27;20438;-69
2022/06/04 03:36:22;;;;;;;9.90;6.30;;;;;;;;;;5135653;27;20492;-69
2022/06/04 03:38:51;;;;;;;8.50;6.70;;;;;;;;;;5135564;27;20434;-70
2022/06/04 03:41:18;;;;;;;14.30;6.83;;;;;;;;;;5136005;27;20540;-69
2022/06/04 03:43:46;;;;;;;7.23;6.53;;;;;;;;;;5135134;27;20464;-68
2022/06/04 03:46:14;;;;;;;8.50;6.37;;;;;;;;;;5135560;27;20795;-70
2022/06/04 03:48:42;;;;;;;7.83;6.13;;;;;;;;;;5135296;27;20477;-68
2022/06/04 03:51:09;;;;;;;7.57;6.87;;;;;;;;;;5135602;27;20473;-69
2022/06/04 03:53:36;;;;;;;7.30;6.70;;;;;;;;;;5135285;27;20525;-69
2022/06/04 03:56:05;;;;;;;7.17;6.60;;;;;;;;;;5134988;27;21054;-69
2022/06/04 03:58:32;;;;;;;10.23;6.90;;;;;;;;;;5134041;27;20536;-69
2022/06/04 04:00:59;;;;;;;7.73;6.30;;;;;;;;;;5134901;27;20442;-69
2022/06/04 04:03:27;;;;;;;7.37;6.67;;;;;;;;;;5134765;27;21006;-69
2022/06/04 04:05:55;;;;;;;6.50;6.00;;;;;;;;;;5135002;27;20516;-69
2022/06/04 04:08:23;;;;;;;7.37;6.67;;;;;;;;;;5135345;27;20520;-69
2022/06/04 04:10:50;;;;;;;6.60;6.03;;;;;;;;;;5134631;27;20442;-69
2022/06/04 04:13:19;;;;;;;6.53;6.00;;;;;;;;;;5134864;27;20534;-70
2022/06/04 04:15:47;;;;;;;8.17;5.90;;;;;;;;;;5134559;27;20519;-68
2022/06/04 04:18:14;;;;;;;9.83;8.80;;;;;;;;;;5134403;27;20923;-69
2022/06/04 04:20:44;;;;;;;8.50;6.70;;;;;;;;;;5134563;27;20448;-70
2022/06/04 04:23:11;;;;;;;7.43;6.53;;;;;;;;;;5134868;27;20434;-69
2022/06/04 04:25:39;;;;;;;7.43;6.73;;;;;;;;;;5134427;27;20970;-69
2022/06/04 04:28:07;;;;;;;8.30;6.20;;;;;;;;;;5134550;27;20476;-69
2022/06/04 04:30:36;;;;;;;7.13;6.10;;;;;;;;;;5134337;27;20449;-69
2022/06/04 04:33:04;;;;;;;8.43;6.50;;;;;;;;;;5134704;27;20438;-69
2022/06/04 04:35:32;;;;;;;8.00;6.57;;;;;;;;;;5134203;27;20564;-68
2022/06/04 04:38:00;;;;;;;6.73;6.03;;;;;;;;;;5134939;27;20452;-69
2022/06/04 04:40:28;;;;;;;11.47;10.30;;;;;;;;;;5134207;27;20441;-69
2022/06/04 04:42:55;;;;;;;7.47;6.50;;;;;;;;;;5134583;27;20455;-69
2022/06/04 04:45:24;;;;;;;7.00;6.30;;;;;;;;;;5134420;27;20866;-69
2022/06/04 04:47:53;;;;;;;6.90;6.20;;;;;;;;;;5134287;27;20963;-69
2022/06/04 04:50:23;;;;;;;6.33;5.73;;;;;;;;;;5134542;27;20491;-69
2022/06/04 04:52:50;;;;;;;6.53;5.90;;;;;;;;;;5134086;27;20452;-69
2022/06/04 04:55:17;;;;;;;6.87;6.27;;;;;;;;;;5134283;28;20473;-69
2022/06/04 04:57:45;;;;;;;8.20;7.30;;;;;;;;;;5133983;28;20533;-69
2022/06/04 05:00:12;;;;;;;6.20;5.70;;;;;;;;;;5133958;28;20533;-69
2022/06/04 05:02:39;;;;;;;7.30;6.60;;;;;;;;;;5134287;28;20438;-69
2022/06/04 05:05:09;;;;;;;7.23;5.03;;;;;;;;;;5133899;28;20453;-69
2022/06/04 05:07:36;;;;;;;6.20;5.60;;;;;;;;;;5133997;28;20447;-72
2022/06/04 05:10:04;;;;;;;8.07;6.93;;;;;;;;;;5134178;28;20437;-68
2022/06/04 05:12:31;;;;;;;6.87;6.00;;;;;;;;;;5133906;28;20524;-69
2022/06/04 05:14:58;;;;;;;7.20;6.50;;;;;;;;;;5133685;28;20923;-68
2022/06/04 05:17:26;;;;;;;5.73;5.23;;;;;;;;;;5134204;28;20802;-68
2022/06/04 05:19:54;;;;;;;8.47;7.17;;;;;;;;;;5133758;28;20430;-73
2022/06/04 05:22:22;;;;;;;6.40;5.80;;;;;;;;;;5134191;28;20445;-71
2022/06/04 05:24:49;;;;;;;5.90;5.40;;;;;;;;;;5134453;28;20449;-72
2022/06/04 05:27:17;;;;;;;9.93;5.67;;;;;;;;;;5134012;28;20844;-73
2022/06/04 05:29:44;;;;;;;6.00;5.47;;;;;;;;;;5134010;28;20440;-72
2022/06/04 05:32:11;;;;;;;6.80;6.10;;;;;;;;;;5134361;28;20482;-72
2022/06/04 05:34:39;;;;;;;6.90;5.60;;;;;;;;;;5133638;28;20478;-71
2022/06/04 05:37:07;;;;;;;15.23;6.20;;;;;;;;;;5133644;28;20477;-73
2022/06/04 05:39:35;;;;;;;9.37;7.20;;;;;;;;;;5133887;28;20450;-73
2022/06/04 05:42:03;;;;;;;6.43;5.83;;;;;;;;;;5133979;28;20529;-74
2022/06/04 05:44:31;;;;;;;6.13;5.57;;;;;;;;;;5133538;28;20434;-72
2022/06/04 05:46:58;;;;;;;7.70;5.87;;;;;;;;;;5133965;28;20880;-72
2022/06/04 05:49:26;;;;;;;6.40;5.73;;;;;;;;;;5133444;27;20559;-71
2022/06/04 05:51:53;;;;;;;6.07;5.37;;;;;;;;;;5134362;27;20517;-72
2022/06/04 05:54:21;;;;;;;5.53;5.03;;;;;;;;;;5137882;27;20436;-73
2022/06/04 05:56:50;;;;;;;12.60;6.33;;;;;;;;;;5137522;27;20520;-72
2022/06/04 05:59:18;;;;;;;8.80;6.90;;;;;;;;;;5137674;27;20480;-72
2022/06/04 06:01:46;;;;;;;7.30;5.70;;;;;;;;;;5137581;27;20521;-72
2022/06/04 06:04:14;;;;;;;6.07;5.50;;;;;;;;;;5137773;27;20799;-72
2022/06/04 06:06:43;;;;;;;5.30;4.80;;;;;;;;;;5137463;27;20442;-72
2022/06/04 06:09:12;;;;;;;5.50;5.00;;;;;;;;;;5137797;27;20520;-72
2022/06/04 06:11:40;;;;;;;7.20;5.27;;;;;;;;;;5137070;27;20537;-72
2022/06/04 06:14:09;;;;;;;7.57;6.83;;;;;;;;;;5136981;27;20431;-72
2022/06/04 06:16:39;;;;;;;4.97;4.57;;;;;;;;;;5136842;27;20840;-73
2022/06/04 06:19:06;;;;;;;7.07;5.20;;;;;;;;;;5136850;27;20504;-73
2022/06/04 06:21:35;;;;;;;5.57;4.87;;;;;;;;;;5137135;27;20442;-73
2022/06/04 06:24:02;;;;;;;6.27;4.60;;;;;;;;;;5136371;27;20461;-72
2022/06/04 06:26:31;;;;;;;5.97;5.37;;;;;;;;;;5137091;27;20456;-74
2022/06/04 06:29:01;;;;;;;5.37;4.73;;;;;;;;;;5137196;27;20874;-73
2022/06/04 06:31:30;;;;;;;9.63;5.63;;;;;;;;;;5136477;27;20474;-74
2022/06/04 06:33:57;;;;;;;6.10;4.90;;;;;;;;;;5136623;27;20522;-73
2022/06/04 06:36:24;;;;;;;6.53;5.40;;;;;;;;;;5137102;27;20553;-74
2022/06/04 06:38:52;;;;;;;5.40;4.90;;;;;;;;;;5136519;27;20438;-74
2022/06/04 06:41:21;;;;;;;7.93;4.43;;;;;;;;;;5136716;27;20974;-74
2022/06/04 06:43:50;;;;;;;12.83;5.70;;;;;;;;;;5136447;27;20434;-73
2022/06/04 06:46:19;;;;;;;6.43;4.53;;;;;;;;;;5136610;27;20447;-71
2022/06/04 06:48:48;;;;;;;5.17;4.77;;;;;;;;;;5136017;27;20512;-72
2022/06/04 06:51:17;;;;;;;5.93;5.40;;;;;;;;;;5136519;27;20438;-73
2022/06/04 06:53:44;;;;;;;6.00;5.40;;;;;;;;;;5136154;27;20438;-73
2022/06/04 06:56:12;;;;;;;6.23;5.00;;;;;;;;;;5136551;27;20478;-73
2022/06/04 06:58:39;;;;;;;4.87;4.43;;;;;;;;;;5136542;27;20448;-73
2022/06/04 07:01:06;;;;;;;4.83;4.40;;;;;;;;;;5136391;27;20520;-73
2022/06/04 07:03:33;;;;;;;5.70;4.70;;;;;;;;;;5136139;27;20836;-73
2022/06/04 07:06:02;;;;;;;6.10;4.33;;;;;;;;;;5135933;27;20477;-72
2022/06/04 07:08:29;;;;;;;4.97;4.47;;;;;;;;;;5136277;27;20539;-71
2022/06/04 07:10:56;;;;;;;5.60;4.40;;;;;;;;;;5136491;27;20521;-72
2022/06/04 07:13:24;;;;;;;5.80;4.30;;;;;;;;;;5135889;27;20446;-72
2022/06/04 07:15:52;;;;;;;4.63;4.23;;;;;;;;;;5135954;27;20546;-72
2022/06/04 07:18:19;;;;;;;5.33;4.83;;;;;;;;;;5136513;27;20453;-72
2022/06/04 07:20:46;;;;;;;6.23;5.60;;;;;;;;;;5135970;27;20438;-72
2022/06/04 07:23:16;;;;;;;6.10;5.20;;;;;;;;;;5135851;27;20434;-72
2022/06/04 07:25:45;;;;;;;5.70;5.20;;;;;;;;;;5135918;27;20439;-73
2022/06/04 07:28:13;;;;;;;5.17;4.70;;;;;;;;;;5135810;27;20442;-72
2022/06/04 07:30:42;;;;;;;5.77;4.83;;;;;;;;;;5135914;27;20837;-71
2022/06/04 07:33:09;;;;;;;5.53;5.03;;;;;;;;;;5135452;27;20450;-72
2022/06/04 07:35:36;;;;;;;4.90;4.50;;;;;;;;;;5136044;27;20444;-73
2022/06/04 07:38:04;;;;;;;5.50;4.90;;;;;;;;;;5135214;27;20488;-73
2022/06/04 07:40:33;;;;;;;5.60;4.50;;;;;;;;;;5135341;27;20441;-73
2022/06/04 07:43:00;;;;;;;6.63;6.00;;;;;;;;;;5135202;27;20525;-73
2022/06/04 07:45:27;;;;;;;4.90;4.50;;;;;;;;;;5135802;27;20529;-73
2022/06/04 07:47:54;;;;;;;6.37;4.70;;;;;;;;;;5134817;27;20565;-73
2022/06/04 07:50:21;;;;;;;5.30;4.80;;;;;;;;;;5135485;27;20437;-72
2022/06/04 07:52:49;;;;;;;7.87;5.10;;;;;;;;;;5135005;27;20521;-73
2022/06/04 07:55:16;;;;;;;5.77;4.87;;;;;;;;;;5135257;27;20442;-73
2022/06/04 07:57:45;;;;;;;5.00;4.20;;;;;;;;;;5135409;27;20919;-73
2022/06/04 08:00:12;;;;;;;5.70;4.60;;;;;;;;;;5135301;27;20488;-72
2022/06/04 08:02:42;;;;;;;4.50;4.10;;;;;;;;;;5135056;27;20441;-74
2022/06/04 08:05:09;;;;;;;5.10;4.70;;;;;;;;;;5134866;27;20478;-73
2022/06/04 08:07:37;;;;;;;4.97;4.50;;;;;;;;;;5135057;27;20531;-73
2022/06/04 08:10:05;;;;;;;5.87;5.27;;;;;;;;;;5134862;27;20437;-75
2022/06/04 08:12:33;;;;;;;4.63;4.33;;;;;;;;;;5135187;27;20504;-79
2022/06/04 08:15:03;;;;;;;5.00;4.60;;;;;;;;;;5133982;27;20439;-69
2022/06/04 08:17:31;;;;;;;5.13;4.73;;;;;;;;;;5134440;27;20524;-69
2022/06/04 08:19:59;;;;;;;6.87;5.17;;;;;;;;;;5134589;27;20526;-69
2022/06/04 08:22:26;;;;;;;6.90;5.20;;;;;;;;;;5134869;27;20528;-69
2022/06/04 08:24:53;;;;;;;4.37;3.97;;;;;;;;;;5134413;27;20445;-68
2022/06/04 08:27:20;;;;;;;6.10;5.10;;;;;;;;;;5134986;27;20470;-69
2022/06/04 08:29:49;;;;;;;6.63;4.93;;;;;;;;;;5134772;27;20474;-68
2022/06/04 08:32:18;;;;;;;5.20;4.70;;;;;;;;;;5134658;27;20818;-68
2022/06/04 08:34:45;;;;;;;4.30;3.83;;;;;;;;;;5134715;27;20444;-68
2022/06/04 08:37:12;;;;;;;8.27;4.83;;;;;;;;;;5134732;27;20523;-68
2022/06/04 08:39:39;;;;;;;5.27;4.50;;;;;;;;;;5134335;27;20546;-68
2022/06/04 08:42:18;;;;;;;6.13;5.63;;;;;;;;;;5134550;27;20440;-68
2022/06/04 08:44:48;;;;;;;6.73;4.80;;;;;;;;;;5134885;27;20523;-68
2022/06/04 08:47:17;;;;;;;4.63;4.20;;;;;;;;;;5134145;27;20928;-67
2022/06/04 08:49:48;;;;;;;5.87;5.30;;;;;;;;;;5134151;27;20509;-69
2022/06/04 08:52:18;;;;;;;5.37;4.87;;;;;;;;;;5134645;27;20505;-67
2022/06/04 08:57:36;;;;;;;8.93;5.60;;;;;;;;;;5134385;28;20873;-69
2022/06/04 09:00:10;;;;;;;5.47;4.97;;;;;;;;;;5134494;28;20423;-70
2022/06/04 09:02:45;;;;;;;5.67;5.00;;;;;;;;;;5134015;28;20469;-69
2022/06/04 09:05:17;;;;;;;8.87;5.20;;;;;;;;;;5134459;28;20837;-68
2022/06/04 09:07:46;;;;;;;6.60;5.50;;;;;;;;;;5134259;28;20460;-69
2022/06/04 09:10:16;;;;;;;4.43;4.03;;;;;;;;;;5134592;28;20447;-68
2022/06/04 09:12:45;;;;;;;5.73;5.00;;;;;;;;;;5134223;28;20534;-69
2022/06/04 09:15:15;;;;;;;5.30;4.90;;;;;;;;;;5133911;28;20434;-68
2022/06/04 09:17:44;;;;;;;6.30;5.67;;;;;;;;;;5134380;28;20975;-69
2022/06/04 09:20:19;;;;;;;6.00;5.60;;;;;;;;;;5133899;28;20454;-69
2022/06/04 09:22:48;;;;;;;5.30;4.80;;;;;;;;;;5134435;28;20448;-68
2022/06/04 09:25:15;;;;;;;5.67;5.17;;;;;;;;;;5134204;28;20448;-69
2022/06/04 09:27:45;;;;;;;5.67;5.00;;;;;;;;;;5138167;27;20443;-69
2022/06/04 09:30:17;;;;;;;6.83;5.93;;;;;;;;;;5138245;27;20857;-69
2022/06/04 09:32:50;;;;;;;8.23;5.77;;;;;;;;;;5137890;27;20509;-68
2022/06/04 09:35:19;;;;;;;6.43;5.40;;;;;;;;;;5138359;27;20434;-69
2022/06/04 09:37:47;;;;;;;7.10;6.17;;;;;;;;;;5137604;27;20515;-68
2022/06/04 09:40:18;;;;;;;5.30;4.90;;;;;;;;;;5137987;27;20508;-68
2022/06/04 09:42:45;;;;;;;6.87;5.23;;;;;;;;;;5138171;27;20428;-68
2022/06/04 09:45:19;;;;;;;5.10;4.70;;;;;;;;;;5137712;27;20917;-68
2022/06/04 09:47:47;;;;;;;7.27;4.80;;;;;;;;;;5137336;27;20443;-68
2022/06/04 09:50:24;;;;;;;8.10;5.90;;;;;;;;;;5138377;27;20424;-71
2022/06/04 09:52:58;;;;;;;6.57;4.70;;;;;;;;;;5137974;27;20793;-68
2022/06/04 09:55:27;;;;;;;7.70;5.50;;;;;;;;;;5138016;27;20515;-69
2022/06/04 09:57:58;;;;;;;9.07;5.53;;;;;;;;;;5137620;27;20479;-69
2022/06/04 10:00:27;;;;;;;6.53;5.80;;;;;;;;;;5137317;27;20567;-68
2022/06/04 10:02:54;;;;;;;5.00;4.50;;;;;;;;;;5137615;27;20856;-69
2022/06/04 10:05:25;;;;;;;5.67;5.03;;;;;;;;;;5136377;27;20528;-68
2022/06/04 10:07:52;;;;;;;7.30;4.83;;;;;;;;;;5137795;27;20741;-69
2022/06/04 10:10:31;;;;;;;6.30;5.70;;;;;;;;;;5137432;27;20440;-69
2022/06/04 10:15:44;;;;;;;5.53;4.90;;;;;;;;;;5137216;27;20759;-69
2022/06/04 10:18:19;;;;;;;8.50;7.70;;;;;;;;;;5136765;27;20488;-68
2022/06/04 10:20:55;;;;;;;9.63;5.80;;;;;;;;;;5137787;27;20844;-69
2022/06/04 10:23:22;;;;;;;5.63;4.60;;;;;;;;;;5137382;27;20441;-67
2022/06/04 10:25:58;;;;;;;7.67;6.23;;;;;;;;;;5137139;27;20438;-68
2022/06/04 10:28:30;;;;;;;6.50;5.00;;;;;;;;;;5137175;27;20783;-68
2022/06/04 10:31:02;;;;;;;6.67;5.00;;;;;;;;;;5137221;27;20524;-69
2022/06/04 10:33:34;;;;;;;7.23;5.10;;;;;;;;;;5136691;27;20422;-70
2022/06/04 10:36:09;;;;;;;7.00;6.17;;;;;;;;;;5136618;27;20864;-68
2022/06/04 10:38:43;;;;;;;6.43;5.83;;;;;;;;;;5136289;27;20468;-68
2022/06/04 10:41:15;;;;;;;5.97;5.40;;;;;;;;;;5136885;27;20433;-70
2022/06/04 10:43:52;;;;;;;6.83;4.80;;;;;;;;;;5136401;27;20469;-68
2022/06/04 10:46:25;;;;;;;8.73;5.27;;;;;;;;;;5136539;27;20432;-69
2022/06/04 10:48:58;;;;;;;6.40;5.63;;;;;;;;;;5136492;27;20472;-68
2022/06/04 10:51:34;;;;;;;6.17;5.17;;;;;;;;;;5136797;27;20770;-69
2022/06/04 10:54:10;;;;;;;6.07;5.57;;;;;;;;;;5136269;27;20911;-68
2022/06/04 10:56:42;;;;;;;6.03;5.43;;;;;;;;;;5136731;27;20857;-68
2022/06/04 10:59:13;;;;;;;5.40;5.00;;;;;;;;;;5136698;27;20427;-68
2022/06/04 11:01:43;;;;;;;6.00;5.50;;;;;;;;;;5136902;27;20430;-68
2022/06/04 11:04:17;;;;;;;6.90;5.27;;;;;;;;;;5136301;27;20430;-68
2022/06/04 11:06:49;;;;;;;6.00;5.50;;;;;;;;;;5136485;27;20434;-69
2022/06/04 11:09:17;;;;;;;6.33;5.70;;;;;;;;;;5136040;27;20468;-68
2022/06/04 11:11:47;;;;;;;6.07;5.10;;;;;;;;;;5136311;27;20860;-69
2022/06/04 11:14:18;;;;;;;5.00;4.50;;;;;;;;;;5135733;27;20516;-69
2022/06/04 11:16:47;;;;;;;6.63;6.03;;;;;;;;;;5135553;27;20438;-69
2022/06/04 11:19:17;;;;;;;5.87;5.30;;;;;;;;;;5136285;27;20541;-69
2022/06/04 11:21:49;;;;;;;5.90;5.40;;;;;;;;;;5136275;27;20526;-69
2022/06/04 11:24:18;;;;;;;7.50;6.80;;;;;;;;;;5135515;27;20521;-69
2022/06/04 11:26:47;;;;;;;12.83;6.17;;;;;;;;;;5135758;27;20474;-69
2022/06/04 11:29:15;;;;;;;5.87;5.23;;;;;;;;;;5135896;27;20521;-69
2022/06/04 11:31:47;;;;;;;5.47;4.77;;;;;;;;;;5135551;27;20455;-69
2022/06/04 11:34:35;;;;;;;4.93;4.53;;;;;;;;;;5135490;27;20518;-68
2022/06/04 11:37:08;;;;;;;5.20;4.03;;;;;;;;;;5136018;27;20507;-69
2022/06/04 11:39:40;;;;;;;8.17;4.83;;;;;;;;;;5136064;27;20555;-69
2022/06/04 11:42:13;;;;;;;5.50;5.00;;;;;;;;;;5135793;27;20510;-69
2022/06/04 11:44:49;;;;;;;8.17;7.00;;;;;;;;;;5135297;27;20431;-68
2022/06/04 11:47:22;;;;;;;6.57;5.97;;;;;;;;;;5135669;27;20428;-69
2022/06/04 11:49:56;;;;;;;9.67;5.43;;;;;;;;;;5134285;27;20476;-68
2022/06/04 11:52:26;;;;;;;5.33;4.93;;;;;;;;;;5136120;27;20427;-69
2022/06/04 11:55:15;;;;;;;6.10;5.23;;;;;;;;;;5135434;27;20525;-68
2022/06/04 11:57:47;;;;;;;6.93;5.77;;;;;;;;;;5128954;27;20478;-69
2022/06/04 12:00:19;;;;;;;6.77;6.00;;;;;;;;;;5134934;27;20513;-68
2022/06/04 12:02:50;;;;;;;6.30;5.70;;;;;;;;;;5135374;27;20518;-69
2022/06/04 12:05:22;;;;;;;8.03;6.20;;;;;;;;;;5135409;27;20467;-69
2022/06/04 12:07:54;;;;;;;15.27;5.90;;;;;;;;;;5135746;27;20455;-68
2022/06/04 12:10:24;;;;;;;5.83;4.77;;;;;;;;;;5135426;27;20466;-68
2022/06/04 12:12:54;;;;;;;8.80;7.90;;;;;;;;;;5135138;27;20904;-68
2022/06/04 12:15:23;;;;;;;7.00;5.67;;;;;;;;;;5135025;27;20431;-68
2022/06/04 12:17:53;;;;;;;6.10;5.60;;;;;;;;;;5134706;27;20906;-68
2022/06/04 12:26:22;;;;;;;5.80;5.23;;;;;;;;;;5134725;27;20534;-70
2022/06/04 12:28:50;;;;;;;5.83;5.33;;;;;;;;;;5134491;27;20523;-69
2022/06/04 12:31:27;;;;;;;6.30;5.70;;;;;;;;;;5134851;27;20451;-69
2022/06/04 12:33:55;;;;;;;5.17;4.77;;;;;;;;;;5134558;27;20921;-69
2022/06/04 12:36:26;;;;;;;12.30;5.23;;;;;;;;;;5134562;27;20810;-68
2022/06/04 12:39:01;;;;;;;5.77;4.80;;;;;;;;;;5134500;27;20507;-69
2022/06/04 12:41:38;;;;;;;5.03;4.00;;;;;;;;;;5134625;27;20509;-69
2022/06/04 12:44:07;;;;;;;6.23;4.30;;;;;;;;;;5134963;27;20796;-69
2022/06/04 12:46:35;;;;;;;5.30;4.43;;;;;;;;;;5134402;27;20470;-69
2022/06/04 12:49:08;;;;;;;6.00;5.50;;;;;;;;;;5134298;27;20510;-68
2022/06/04 12:51:47;;;;;;;8.80;5.17;;;;;;;;;;5134645;27;20503;-68
2022/06/04 12:54:30;;;;;;;5.43;4.13;;;;;;;;;;5134697;27;20431;-70
2022/06/04 12:56:59;;;;;;;4.63;4.33;;;;;;;;;;5134114;27;20464;-68
2022/06/04 12:59:28;;;;;;;4.50;4.20;;;;;;;;;;5134044;28;20492;-68
2022/06/04 13:01:56;;;;;;;4.50;4.13;;;;;;;;;;5134255;27;20531;-69
2022/06/04 13:04:25;;;;;;;5.13;4.50;;;;;;;;;;5134663;28;20871;-68
2022/06/04 13:06:55;;;;;;;5.67;4.50;;;;;;;;;;5134230;28;20579;-69
2022/06/04 13:09:29;;;;;;;7.03;5.20;;;;;;;;;;5134021;28;20443;-69
2022/06/04 13:12:02;;;;;;;6.57;5.93;;;;;;;;;;5133926;28;20433;-69
2022/06/04 13:14:34;;;;;;;8.73;6.93;;;;;;;;;;5134409;28;20511;-69
2022/06/04 13:17:17;;;;;;;6.13;5.63;;;;;;;;;;5134117;28;20415;-68
2022/06/04 13:19:50;;;;;;;8.53;7.77;;;;;;;;;;5134420;28;20574;-68
2022/06/04 13:22:20;;;;;;;7.67;7.00;;;;;;;;;;5134181;28;20428;-68
2022/06/04 13:24:48;;;;;;;5.83;5.30;;;;;;;;;;5133802;28;20523;-69
2022/06/04 13:27:19;;;;;;;8.70;5.40;;;;;;;;;;5132864;28;20438;-69
2022/06/04 13:29:55;;;;;;;4.60;4.07;;;;;;;;;;5134260;28;20445;-69
2022/06/04 13:32:23;;;;;;;8.10;5.43;;;;;;;;;;5134062;28;20460;-69
2022/06/04 13:34:50;;;;;;;6.00;5.37;;;;;;;;;;5134136;28;20528;-69
2022/06/04 13:37:21;;;;;;;7.20;5.57;;;;;;;;;;5134015;28;20440;-71
2022/06/04 13:39:49;;;;;;;6.23;5.60;;;;;;;;;;5133985;28;20544;-69
2022/06/04 13:42:22;;;;;;;6.43;5.70;;;;;;;;;;5133824;28;20448;-68
2022/06/04 13:44:53;;;;;;;5.20;4.70;;;;;;;;;;5134094;28;20495;-68
2022/06/04 13:47:22;;;;;;;5.50;4.93;;;;;;;;;;5133907;28;20852;-69
2022/06/04 13:49:51;;;;;;;4.70;4.30;;;;;;;;;;5134004;27;20790;-69
2022/06/04 13:52:21;;;;;;;9.77;5.57;;;;;;;;;;5133820;28;20448;-69
2022/06/04 13:54:53;;;;;;;6.63;6.13;;;;;;;;;;5133518;28;20538;-69
2022/06/04 13:57:27;;;;;;;5.43;4.93;;;;;;;;;;5133708;28;20434;-69
2022/06/04 13:59:56;;;;;;;10.87;7.30;;;;;;;;;;5133680;28;20552;-70
2022/06/04 14:02:25;;;;;;;5.23;4.83;;;;;;;;;;5133892;28;20507;-69
2022/06/04 14:07:41;;;;;;;7.03;5.00;;;;;;;;;;5133678;28;20393;-69
2022/06/04 14:10:13;;;;;;;5.50;5.00;;;;;;;;;;5133848;28;20522;-70
2022/06/04 14:12:46;;;;;;;5.23;4.73;;;;;;;;;;5133927;27;20433;-70
2022/06/04 14:15:18;;;;;;;5.83;4.57;;;;;;;;;;5137532;27;20455;-69
2022/06/04 14:17:53;;;;;;;6.93;4.30;;;;;;;;;;5136893;27;20540;-69
2022/06/04 14:20:24;;;;;;;7.53;5.70;;;;;;;;;;5137251;27;20434;-69
2022/06/04 14:22:59;;;;;;;5.27;4.60;;;;;;;;;;5137469;27;20397;-69
2022/06/04 14:25:31;;;;;;;9.53;5.70;;;;;;;;;;5137543;27;20542;-70
2022/06/04 14:28:04;;;;;;;5.93;4.73;;;;;;;;;;5136545;27;20478;-70
2022/06/04 14:30:34;;;;;;;5.37;4.97;;;;;;;;;;5137459;27;20427;-70
2022/06/04 14:33:03;;;;;;;6.50;5.67;;;;;;;;;;5137047;27;20408;-69
2022/06/04 14:35:33;;;;;;;4.80;4.40;;;;;;;;;;5136651;27;20417;-70
2022/06/04 14:38:01;;;;;;;4.60;4.23;;;;;;;;;;5136672;27;20796;-70
2022/06/04 14:40:36;;;;;;;5.20;4.80;;;;;;;;;;5136868;27;20755;-70
2022/06/04 14:43:19;;;;;;;5.50;5.00;;;;;;;;;;5136509;27;20510;-69
2022/06/04 14:45:53;;;;;;;4.83;4.27;;;;;;;;;;5136494;27;20435;-69
2022/06/04 14:48:41;;;;;;;6.27;5.30;;;;;;;;;;5136151;27;20482;-69
2022/06/04 14:51:17;;;;;;;5.00;4.47;;;;;;;;;;5136416;27;20517;-69
2022/06/04 14:53:44;;;;;;;5.43;5.03;;;;;;;;;;5136285;27;20949;-69
2022/06/04 14:56:22;;;;;;;4.97;4.50;;;;;;;;;;5136486;27;20863;-69
2022/06/04 14:59:12;;;;;;;4.60;4.20;;;;;;;;;;5135933;27;21039;-69
2022/06/04 15:01:48;;;;;;;4.10;3.80;;;;;;;;;;5136381;27;20429;-69
2022/06/04 15:04:30;;;;;;;4.80;4.30;;;;;;;;;;5136488;27;20823;-68
2022/06/04 15:07:05;;;;;;;6.80;5.00;;;;;;;;;;5115337;27;20422;-69
2022/06/04 15:09:43;;;;;;;4.57;4.17;;;;;;;;;;5135869;27;20524;-68
2022/06/04 15:12:22;;;;;;;4.80;4.30;;;;;;;;;;5136130;27;20469;-69
2022/06/04 15:14:59;;;;;;;5.30;4.27;;;;;;;;;;5135815;27;20442;-68
2022/06/04 15:17:32;;;;;;;4.80;4.40;;;;;;;;;;5136146;27;20401;-68
2022/06/04 15:20:03;;;;;;;5.13;4.10;;;;;;;;;;5135892;27;20988;-68
2022/06/04 15:22:41;;;;;;;4.70;4.23;;;;;;;;;;5135959;27;20494;-68